createdAt,value
2022-09-18T00:01:39.270Z,11.19
2022-09-18T00:04:10.992Z,11.19
2022-09-18T00:06:41.242Z,11.18
2022-09-18T00:09:14.443Z,11.14
2022-09-18T00:11:46.898Z,11.19
2022-09-18T00:14:20.010Z,11.25
2022-09-18T00:16:48.487Z,11.26
2022-09-18T00:19:18.035Z,11.33
2022-09-18T00:21:49.742Z,11.27
2022-09-18T00:24:18.916Z,11.28
2022-09-18T00:26:48.075Z,11.22
2022-09-18T00:29:18.045Z,11.21
2022-09-18T00:31:46.595Z,11.26
2022-09-18T00:34:15.794Z,11.25
2022-09-18T00:36:43.933Z,11.22
2022-09-18T00:39:13.090Z,11.21
2022-09-18T00:41:44.059Z,11.21
2022-09-18T00:44:29.892Z,11.23
2022-09-18T00:47:29.038Z,11.22
2022-09-18T00:50:10.132Z,11.26
2022-09-18T00:52:54.478Z,11.20
2022-09-18T00:55:29.307Z,11.17
2022-09-18T00:58:00.632Z,11.16
2022-09-18T01:00:29.810Z,11.17
2022-09-18T01:02:59.559Z,11.19
2022-09-18T01:05:54.431Z,11.18
2022-09-18T01:08:56.705Z,11.19
2022-09-18T01:11:51.745Z,11.27
2022-09-18T01:14:41.562Z,11.26
2022-09-18T01:17:16.225Z,11.24
2022-09-18T01:20:41.465Z,11.28
2022-09-18T01:23:49.376Z,11.28
2022-09-18T01:26:50.147Z,11.23
2022-09-18T01:29:32.740Z,11.22
2022-09-18T01:32:28.063Z,11.23
2022-09-18T01:35:40.105Z,11.23
2022-09-18T01:38:27.357Z,11.26
2022-09-18T01:41:16.893Z,11.28
2022-09-18T01:43:45.832Z,11.28
2022-09-18T01:46:19.671Z,11.22
2022-09-18T01:48:59.941Z,11.23
2022-09-18T01:52:18.342Z,11.26
2022-09-18T01:54:50.237Z,11.26
2022-09-18T01:57:52.237Z,11.27
2022-09-18T02:00:21.919Z,11.25
2022-09-18T02:03:03.390Z,11.23
2022-09-18T02:06:03.281Z,11.23
2022-09-18T02:08:41.409Z,11.18
2022-09-18T02:11:13.323Z,11.17
2022-09-18T02:14:06.346Z,11.20
2022-09-18T02:17:11.489Z,11.15
2022-09-18T02:19:57.626Z,11.09
2022-09-18T02:22:30.547Z,11.12
2022-09-18T02:25:04.235Z,11.10
2022-09-18T02:27:34.491Z,11.11
2022-09-18T02:30:05.762Z,11.12
2022-09-18T02:32:39.578Z,11.12
2022-09-18T02:35:10.173Z,11.09
2022-09-18T02:37:47.898Z,11.08
2022-09-18T02:40:33.323Z,11.05
2022-09-18T02:43:40.419Z,11.08
2022-09-18T02:46:21.748Z,11.05
2022-09-18T02:49:17.242Z,11.07
2022-09-18T02:51:59.402Z,11.06
2022-09-18T02:54:41.240Z,11.08
2022-09-18T02:57:20.397Z,11.04
2022-09-18T02:59:56.094Z,11.03
2022-09-18T03:02:25.839Z,11.05
2022-09-18T03:04:54.412Z,11.05
2022-09-18T03:07:29.252Z,11.06
2022-09-18T03:09:59.387Z,11.09
2022-09-18T03:12:27.305Z,11.09
2022-09-18T03:14:55.250Z,11.07
2022-09-18T03:17:24.857Z,11.05
2022-09-18T03:19:54.129Z,11.05
2022-09-18T03:22:21.974Z,11.10
2022-09-18T03:25:35.537Z,11.22
2022-09-18T03:28:04.776Z,11.19
2022-09-18T03:30:37.783Z,11.25
2022-09-18T03:33:06.184Z,11.19
2022-09-18T03:35:34.342Z,11.17
2022-09-18T03:38:02.341Z,11.17
2022-09-18T03:40:32.169Z,11.15
2022-09-18T03:43:04.862Z,11.11
2022-09-18T03:45:32.905Z,11.08
2022-09-18T03:48:03.187Z,11.05
2022-09-18T03:50:31.405Z,11.03
2022-09-18T03:52:59.325Z,11.05
2022-09-18T03:55:47.080Z,11.03
2022-09-18T03:58:35.074Z,11.03
2022-09-18T04:01:13.863Z,11.04
2022-09-18T04:04:07.413Z,11.06
2022-09-18T04:07:00.933Z,11.06
2022-09-18T04:09:49.081Z,11.08
2022-09-18T04:12:17.328Z,11.10
2022-09-18T04:14:48.662Z,11.14
2022-09-18T04:17:16.638Z,11.07
2022-09-18T04:19:44.431Z,11.04
2022-09-18T04:22:12.423Z,11.02
2022-09-18T04:24:40.974Z,11.01
2022-09-18T04:27:09.044Z,10.99
2022-09-18T04:29:38.568Z,11.01
2022-09-18T04:32:08.340Z,11.03
2022-09-18T04:34:36.491Z,11.06
2022-09-18T04:37:09.405Z,11.02
2022-09-18T04:39:38.381Z,11.04
2022-09-18T04:42:06.423Z,11.07
2022-09-18T04:44:34.469Z,11.07
2022-09-18T04:47:02.436Z,11.03
2022-09-18T04:49:30.334Z,11.05
2022-09-18T04:51:58.148Z,11.12
2022-09-18T04:54:26.225Z,11.13
2022-09-18T04:56:54.472Z,11.16
2022-09-18T04:59:22.914Z,11.24
2022-09-18T05:01:55.246Z,11.26
2022-09-18T05:04:23.498Z,11.25
2022-09-18T05:06:57.813Z,11.30
2022-09-18T05:09:26.113Z,11.30
2022-09-18T05:11:54.611Z,11.28
2022-09-18T05:14:24.785Z,11.28
2022-09-18T05:16:56.720Z,11.32
2022-09-18T05:19:37.722Z,11.31
2022-09-18T05:22:11.673Z,11.32
2022-09-18T05:24:44.076Z,11.28
2022-09-18T05:27:14.308Z,11.29
2022-09-18T05:29:42.873Z,11.28
2022-09-18T05:32:20.197Z,11.29
2022-09-18T05:34:50.202Z,11.31
2022-09-18T05:37:19.257Z,11.29
2022-09-18T05:39:51.809Z,11.25
2022-09-18T05:42:19.668Z,11.22
2022-09-18T05:44:47.694Z,11.21
2022-09-18T05:47:21.038Z,11.23
2022-09-18T05:49:49.232Z,11.21
2022-09-18T05:52:16.925Z,11.23
2022-09-18T05:54:45.502Z,11.24
2022-09-18T05:57:13.624Z,11.23
2022-09-18T05:59:41.807Z,11.23
2022-09-18T06:02:14.596Z,11.25
2022-09-18T06:05:01.189Z,11.29
2022-09-18T06:07:29.034Z,11.31
2022-09-18T06:09:59.230Z,11.36
2022-09-18T06:12:27.902Z,11.39
2022-09-18T06:14:56.169Z,11.40
2022-09-18T06:17:27.906Z,11.45
2022-09-18T06:20:00.733Z,11.46
2022-09-18T06:22:28.949Z,11.46
2022-09-18T06:24:58.456Z,11.47
2022-09-18T06:27:33.890Z,11.54
2022-09-18T06:30:02.877Z,11.57
2022-09-18T06:32:34.497Z,11.59
2022-09-18T06:35:02.648Z,11.62
2022-09-18T06:37:30.421Z,11.64
2022-09-18T06:40:11.790Z,11.68
2022-09-18T06:43:05.812Z,11.69
2022-09-18T06:46:05.769Z,11.68
2022-09-18T06:48:40.716Z,11.73
2022-09-18T06:51:09.895Z,11.77
2022-09-18T06:53:58.087Z,11.79
2022-09-18T06:56:26.319Z,11.83
2022-09-18T06:58:55.659Z,11.87
2022-09-18T07:01:24.041Z,11.91
2022-09-18T07:04:03.707Z,11.95
2022-09-18T07:06:45.779Z,12.03
2022-09-18T07:09:15.478Z,12.04
2022-09-18T07:12:04.767Z,12.10
2022-09-18T07:14:47.084Z,12.14
2022-09-18T07:17:18.655Z,12.15
2022-09-18T07:19:49.944Z,12.23
2022-09-18T07:22:20.143Z,12.25
2022-09-18T07:24:51.619Z,12.38
2022-09-18T07:27:19.874Z,12.35
2022-09-18T07:29:50.420Z,12.36
2022-09-18T07:32:22.235Z,12.40
2022-09-18T07:34:50.885Z,12.47
2022-09-18T07:37:30.250Z,12.56
2022-09-18T07:40:36.944Z,12.60
2022-09-18T07:43:10.956Z,12.64
2022-09-18T07:45:45.828Z,12.65
2022-09-18T07:48:14.373Z,12.73
2022-09-18T07:50:47.692Z,12.80
2022-09-18T07:53:18.669Z,12.79
2022-09-18T07:55:49.821Z,12.91
2022-09-18T07:58:19.605Z,13.02
2022-09-18T08:01:03.348Z,12.89
2022-09-18T08:03:35.076Z,12.88
2022-09-18T08:06:12.446Z,12.85
2022-09-18T08:08:59.727Z,12.96
2022-09-18T08:11:56.225Z,13.09
2022-09-18T08:14:47.677Z,13.16
2022-09-18T08:17:26.344Z,13.12
2022-09-18T08:20:07.053Z,13.22
2022-09-18T08:22:55.892Z,13.21
2022-09-18T08:25:27.789Z,13.20
2022-09-18T08:28:04.893Z,13.28
2022-09-18T08:30:47.851Z,13.20
2022-09-18T08:33:16.172Z,13.41
2022-09-18T08:35:44.428Z,13.38
2022-09-18T08:38:25.646Z,13.45
2022-09-18T08:41:26.669Z,13.53
2022-09-18T08:44:05.144Z,13.59
2022-09-18T08:47:00.664Z,13.74
2022-09-18T08:49:45.218Z,13.89
2022-09-18T08:52:23.006Z,13.87
2022-09-18T08:55:31.136Z,13.78
2022-09-18T08:58:56.341Z,13.81
2022-09-18T09:02:09.664Z,13.96
2022-09-18T09:04:37.801Z,14.04
2022-09-18T09:07:39.878Z,14.13
2022-09-18T09:10:31.061Z,14.09
2022-09-18T09:13:17.973Z,13.85
2022-09-18T09:15:54.588Z,13.93
2022-09-18T09:19:13.487Z,13.95
2022-09-18T09:22:23.155Z,14.37
2022-09-18T09:25:06.329Z,14.41
2022-09-18T09:29:00.612Z,14.44
2022-09-18T09:32:21.248Z,14.58
2022-09-18T09:35:26.271Z,14.57
2022-09-18T09:38:42.684Z,14.62
2022-09-18T09:41:39.188Z,14.67
2022-09-18T09:44:49.857Z,14.57
2022-09-18T09:47:57.900Z,14.58
2022-09-18T09:50:31.415Z,14.69
2022-09-18T09:53:04.745Z,14.94
2022-09-18T09:55:43.269Z,14.59
2022-09-18T09:58:35.968Z,14.97
2022-09-18T10:01:46.727Z,14.98
2022-09-18T10:04:51.894Z,14.95
2022-09-18T10:07:46.995Z,14.79
2022-09-18T10:10:41.745Z,14.94
2022-09-18T10:13:40.051Z,14.92
2022-09-18T10:16:22.280Z,15.04
2022-09-18T10:18:51.108Z,15.25
2022-09-18T10:21:24.526Z,15.18
2022-09-18T10:24:08.433Z,15.40
2022-09-18T10:26:54.838Z,15.45
2022-09-18T10:29:23.104Z,15.27
2022-09-18T10:31:59.083Z,15.60
2022-09-18T10:34:49.724Z,15.76
2022-09-18T10:37:30.418Z,16.02
2022-09-18T10:40:05.429Z,16.44
2022-09-18T10:42:37.060Z,16.19
2022-09-18T10:45:30.803Z,16.85
2022-09-18T10:48:23.913Z,17.03
2022-09-18T10:51:00.990Z,16.49
2022-09-18T10:53:43.669Z,16.37
2022-09-18T10:56:21.821Z,16.14
2022-09-18T10:58:53.668Z,15.99
2022-09-18T11:01:27.702Z,16.07
2022-09-18T11:04:04.080Z,15.77
2022-09-18T11:06:37.650Z,15.80
2022-09-18T11:09:27.428Z,15.79
2022-09-18T11:11:56.244Z,15.84
2022-09-18T11:14:33.535Z,16.02
2022-09-18T11:17:05.837Z,15.73
2022-09-18T11:19:40.870Z,15.58
2022-09-18T11:22:34.258Z,15.39
2022-09-18T11:25:15.453Z,15.20
2022-09-18T11:27:53.796Z,15.02
2022-09-18T11:30:28.051Z,14.98
2022-09-18T11:33:10.329Z,14.92
2022-09-18T11:35:46.772Z,14.86
2022-09-18T11:38:20.068Z,14.86
2022-09-18T11:40:55.516Z,14.82
2022-09-18T11:43:34.924Z,14.79
2022-09-18T11:46:47.768Z,14.84
2022-09-18T11:49:22.465Z,14.94
2022-09-18T11:51:58.382Z,14.95
2022-09-18T11:54:56.428Z,14.95
2022-09-18T11:57:40.144Z,15.01
2022-09-18T12:00:12.860Z,15.01
2022-09-18T12:03:05.905Z,15.15
2022-09-18T12:05:59.053Z,15.28
2022-09-18T12:08:55.019Z,15.10
2022-09-18T12:11:51.320Z,15.24
2022-09-18T12:15:20.001Z,15.15
2022-09-18T12:18:03.720Z,15.09
2022-09-18T12:20:44.572Z,15.13
2022-09-18T12:23:23.975Z,15.09
2022-09-18T12:26:13.426Z,15.08
2022-09-18T12:29:19.038Z,15.04
2022-09-18T12:32:24.884Z,15.10
2022-09-18T12:35:39.663Z,15.07
2022-09-18T12:38:19.069Z,15.10
2022-09-18T12:41:28.860Z,15.11
2022-09-18T12:44:11.205Z,15.02
2022-09-18T12:47:02.324Z,14.99
2022-09-18T12:49:55.494Z,15.02
2022-09-18T12:52:32.932Z,15.04
2022-09-18T12:55:27.837Z,15.07
2022-09-18T12:58:43.668Z,15.10
2022-09-18T13:01:50.304Z,15.09
2022-09-18T13:04:33.412Z,15.07
2022-09-18T13:07:46.972Z,14.92
2022-09-18T13:10:31.005Z,14.94
2022-09-18T13:13:09.533Z,14.93
2022-09-18T13:16:03.426Z,14.89
2022-09-18T13:18:40.516Z,14.82
2022-09-18T13:21:30.110Z,14.77
2022-09-18T13:23:59.691Z,14.83
2022-09-18T13:26:32.373Z,14.79
2022-09-18T13:29:01.025Z,14.79
2022-09-18T13:31:38.043Z,14.88
2022-09-18T13:34:18.371Z,14.83
2022-09-18T13:36:47.399Z,14.87
2022-09-18T13:39:19.139Z,14.88
2022-09-18T13:41:53.245Z,14.82
2022-09-18T13:44:28.195Z,14.89
2022-09-18T13:47:09.950Z,14.91
2022-09-18T13:50:00.915Z,14.87
2022-09-18T13:52:35.028Z,14.93
2022-09-18T13:55:25.328Z,14.98
2022-09-18T13:58:31.154Z,14.89
2022-09-18T14:01:10.487Z,14.95
2022-09-18T14:03:42.366Z,14.92
2022-09-18T14:06:35.155Z,15.03
2022-09-18T14:09:55.434Z,14.95
2022-09-18T14:12:25.536Z,14.92
2022-09-18T14:15:21.144Z,14.92
2022-09-18T14:18:16.563Z,14.94
2022-09-18T14:20:52.493Z,14.90
2022-09-18T14:23:35.988Z,14.87
2022-09-18T14:26:31.174Z,14.84
2022-09-18T14:29:27.217Z,14.83
2022-09-18T14:31:58.131Z,14.87
2022-09-18T14:34:37.661Z,14.86
2022-09-18T14:37:29.552Z,14.81
2022-09-18T14:39:59.367Z,14.87
2022-09-18T14:42:38.683Z,14.89
2022-09-18T14:45:13.008Z,14.88
2022-09-18T14:47:44.458Z,14.79
2022-09-18T14:50:35.064Z,14.78
2022-09-18T14:53:21.864Z,14.81
2022-09-18T14:55:56.155Z,14.82
2022-09-18T14:58:36.928Z,14.83
2022-09-18T15:01:19.130Z,14.85
2022-09-18T15:03:50.623Z,14.79
2022-09-18T15:06:45.308Z,14.76
2022-09-18T15:09:16.917Z,14.79
2022-09-18T15:12:01.821Z,14.79
2022-09-18T15:14:46.775Z,14.84
2022-09-18T15:17:25.264Z,14.82
2022-09-18T15:20:14.396Z,14.78
2022-09-18T15:22:42.887Z,14.79
2022-09-18T15:25:20.692Z,14.81
2022-09-18T15:27:49.321Z,14.77
2022-09-18T15:30:23.907Z,14.66
2022-09-18T15:32:56.615Z,14.67
2022-09-18T15:35:30.061Z,14.64
2022-09-18T15:38:03.438Z,14.64
2022-09-18T15:40:36.069Z,14.54
2022-09-18T15:43:11.356Z,14.59
2022-09-18T15:45:39.583Z,14.56
2022-09-18T15:48:39.675Z,14.65
2022-09-18T15:51:25.844Z,14.60
2022-09-18T15:54:12.739Z,14.44
2022-09-18T15:57:01.114Z,14.47
2022-09-18T15:59:37.085Z,14.52
2022-09-18T16:02:37.758Z,14.45
2022-09-18T16:05:14.963Z,14.43
2022-09-18T16:07:58.034Z,14.42
2022-09-18T16:10:35.066Z,14.34
2022-09-18T16:13:26.823Z,14.36
2022-09-18T16:16:24.425Z,14.23
2022-09-18T16:18:56.840Z,14.24
2022-09-18T16:21:28.090Z,14.25
2022-09-18T16:24:01.640Z,14.25
2022-09-18T16:26:35.973Z,14.14
2022-09-18T16:29:13.465Z,14.19
2022-09-18T16:31:41.696Z,14.21
2022-09-18T16:34:21.592Z,14.21
2022-09-18T16:36:50.726Z,14.15
2022-09-18T16:39:25.292Z,14.09
2022-09-18T16:41:53.972Z,14.67
2022-09-18T16:44:22.122Z,14.56
2022-09-18T16:46:53.690Z,14.16
2022-09-18T16:49:26.522Z,14.01
2022-09-18T16:51:55.665Z,13.99
2022-09-18T16:54:24.172Z,13.86
2022-09-18T16:56:56.976Z,13.82
2022-09-18T16:59:30.377Z,13.61
2022-09-18T17:02:04.134Z,13.70
2022-09-18T17:04:34.151Z,13.71
2022-09-18T17:07:03.531Z,13.73
2022-09-18T17:09:32.664Z,13.62
2022-09-18T17:12:00.584Z,13.61
2022-09-18T17:14:28.854Z,13.61
2022-09-18T17:16:56.986Z,13.48
2022-09-18T17:19:24.789Z,13.50
2022-09-18T17:21:53.358Z,13.56
2022-09-18T17:24:25.772Z,13.58
2022-09-18T17:26:54.219Z,13.58
2022-09-18T17:29:22.643Z,13.59
2022-09-18T17:31:52.234Z,13.41
2022-09-18T17:34:22.198Z,13.32
2022-09-18T17:36:50.125Z,13.38
2022-09-18T17:39:21.373Z,13.41
2022-09-18T17:41:50.168Z,13.45
2022-09-18T17:44:18.004Z,13.47
2022-09-18T17:46:51.300Z,13.42
2022-09-18T17:49:20.066Z,13.33
2022-09-18T17:51:49.528Z,13.48
2022-09-18T17:54:18.286Z,13.65
2022-09-18T17:56:46.511Z,13.61
2022-09-18T17:59:15.616Z,13.54
2022-09-18T18:01:46.479Z,13.55
2022-09-18T18:04:16.193Z,13.66
2022-09-18T18:06:50.595Z,13.80
2022-09-18T18:09:19.315Z,13.75
2022-09-18T18:11:48.257Z,13.73
2022-09-18T18:14:16.814Z,13.78
2022-09-18T18:16:49.772Z,13.78
2022-09-18T18:19:22.274Z,13.71
2022-09-18T18:21:50.529Z,13.75
2022-09-18T18:24:19.063Z,13.72
2022-09-18T18:26:48.603Z,13.66
2022-09-18T18:29:18.799Z,13.56
2022-09-18T18:31:49.235Z,13.50
2022-09-18T18:34:22.265Z,13.45
2022-09-18T18:36:50.608Z,13.37
2022-09-18T18:39:20.260Z,13.31
2022-09-18T18:41:49.852Z,13.24
2022-09-18T18:44:18.563Z,13.24
2022-09-18T18:46:46.775Z,13.06
2022-09-18T18:49:16.261Z,12.95
2022-09-18T18:51:52.112Z,12.92
2022-09-18T18:54:22.074Z,12.95
2022-09-18T18:56:50.406Z,12.96
2022-09-18T18:59:19.891Z,12.94
2022-09-18T19:01:48.216Z,12.95
2022-09-18T19:04:19.239Z,13.03
2022-09-18T19:06:49.073Z,12.93
2022-09-18T19:09:22.608Z,12.90
2022-09-18T19:11:52.942Z,12.92
2022-09-18T19:14:29.127Z,12.88
2022-09-18T19:16:57.892Z,12.90
2022-09-18T19:19:28.408Z,12.96
2022-09-18T19:22:00.609Z,12.90
2022-09-18T19:24:30.117Z,12.93
2022-09-18T19:26:58.927Z,12.90
2022-09-18T19:29:29.525Z,12.92
2022-09-18T19:32:00.345Z,12.76
2022-09-18T19:34:28.587Z,12.72
2022-09-18T19:36:56.683Z,12.73
2022-09-18T19:39:24.735Z,12.67
2022-09-18T19:41:55.301Z,12.70
2022-09-18T19:44:34.354Z,12.49
2022-09-18T19:47:16.490Z,12.54
2022-09-18T19:49:44.651Z,12.56
2022-09-18T19:52:21.198Z,12.50
2022-09-18T19:54:51.620Z,12.60
2022-09-18T19:57:20.870Z,12.58
2022-09-18T19:59:52.619Z,12.56
2022-09-18T20:02:21.786Z,12.67
2022-09-18T20:04:49.784Z,12.67
2022-09-18T20:07:17.691Z,12.67
2022-09-18T20:09:45.529Z,12.90
2022-09-18T20:12:14.007Z,12.92
2022-09-18T20:14:42.097Z,12.91
2022-09-18T20:17:11.316Z,12.93
2022-09-18T20:19:39.201Z,13.05
2022-09-18T20:22:07.535Z,13.03
2022-09-18T20:24:35.156Z,13.13
2022-09-18T20:27:03.184Z,13.03
2022-09-18T20:29:31.230Z,13.03
2022-09-18T20:31:59.259Z,12.99
2022-09-18T20:34:27.927Z,12.95
2022-09-18T20:36:55.778Z,12.93
2022-09-18T20:39:23.573Z,12.79
2022-09-18T20:41:51.498Z,12.60
2022-09-18T20:44:19.699Z,12.57
2022-09-18T20:46:50.499Z,12.49
2022-09-18T20:49:18.329Z,12.46
2022-09-18T20:51:46.590Z,12.41
2022-09-18T20:54:20.845Z,12.31
2022-09-18T20:56:49.080Z,12.25
2022-09-18T20:59:45.734Z,12.18
2022-09-18T21:02:17.776Z,11.92
2022-09-18T21:04:54.533Z,11.88
2022-09-18T21:07:41.580Z,11.80
2022-09-18T21:10:18.316Z,11.69
2022-09-18T21:12:47.658Z,11.68
2022-09-18T21:15:15.584Z,11.70
2022-09-18T21:17:43.762Z,11.58
2022-09-18T21:20:12.180Z,11.52
2022-09-18T21:23:00.424Z,11.06
2022-09-18T21:25:31.050Z,10.23
2022-09-18T21:27:59.435Z,9.95
2022-09-18T21:30:27.326Z,10.06
2022-09-18T21:32:55.955Z,10.10
2022-09-18T21:35:23.868Z,10.14
2022-09-18T21:37:52.121Z,10.13
2022-09-18T21:40:20.509Z,10.05
2022-09-18T21:42:48.350Z,10.11
2022-09-18T21:45:20.748Z,10.02
2022-09-18T21:47:50.283Z,10.16
2022-09-18T21:50:19.269Z,10.08
2022-09-18T21:52:47.080Z,10.13
2022-09-18T21:55:14.992Z,9.99
2022-09-18T21:57:43.172Z,10.10
2022-09-18T22:00:12.431Z,10.07
2022-09-18T22:02:43.336Z,9.97
2022-09-18T22:05:12.321Z,10.04
2022-09-18T22:07:40.973Z,10.00
2022-09-18T22:10:09.445Z,10.15
2022-09-18T22:12:39.030Z,10.05
2022-09-18T22:15:07.804Z,9.99
2022-09-18T22:17:35.666Z,10.03
2022-09-18T22:20:03.989Z,10.01
2022-09-18T22:22:34.214Z,9.90
2022-09-18T22:25:03.292Z,9.92
2022-09-18T22:27:31.096Z,9.99
2022-09-18T22:29:59.009Z,9.81
2022-09-18T22:32:27.177Z,9.93
2022-09-18T22:34:55.960Z,9.95
2022-09-18T22:37:23.947Z,9.95
2022-09-18T22:39:51.907Z,9.91
2022-09-18T22:42:19.981Z,9.86
2022-09-18T22:44:48.002Z,9.72
2022-09-18T22:47:15.967Z,9.66
2022-09-18T22:49:43.877Z,9.60
2022-09-18T22:52:11.769Z,9.43
2022-09-18T22:54:39.713Z,9.47
2022-09-18T22:57:07.561Z,9.47
2022-09-18T22:59:35.614Z,9.32
2022-09-18T23:02:08.109Z,9.32
2022-09-18T23:04:36.755Z,9.21
2022-09-18T23:07:04.705Z,9.12
2022-09-18T23:09:32.642Z,9.21
2022-09-18T23:12:00.509Z,9.18
2022-09-18T23:14:31.271Z,9.27
2022-09-18T23:17:00.860Z,9.21
2022-09-18T23:19:34.351Z,9.30
2022-09-18T23:22:02.659Z,9.23
2022-09-18T23:24:31.860Z,9.33
2022-09-18T23:27:00.485Z,9.13
2022-09-18T23:29:31.968Z,9.08
2022-09-18T23:32:00.518Z,9.11
2022-09-18T23:34:31.776Z,8.99
2022-09-18T23:37:00.663Z,9.06
2022-09-18T23:39:32.482Z,9.19
2022-09-18T23:42:02.721Z,9.14
2022-09-18T23:44:31.706Z,9.08
2022-09-18T23:47:00.545Z,9.10
2022-09-18T23:49:29.685Z,8.96
2022-09-18T23:51:59.513Z,9.08
2022-09-18T23:54:31.920Z,9.12
2022-09-18T23:56:59.751Z,8.95
2022-09-18T23:59:28.516Z,9.01
